sensor_id;sensor_type;location;lat;lon;timestamp;temperature;humidity
41720;DHT22;27405;53.316;-6.294;2024-03-06T00:00:58;5.80;99.90
41720;DHT22;27405;53.316;-6.294;2024-03-06T00:03:24;5.80;99.90
41720;DHT22;27405;53.316;-6.294;2024-03-06T00:05:50;5.80;99.90
41720;DHT22;27405;53.316;-6.294;2024-03-06T00:08:16;5.70;99.90
41720;DHT22;27405;53.316;-6.294;2024-03-06T00:10:42;5.70;99.90
41720;DHT22;27405;53.316;-6.294;2024-03-06T00:13:08;5.70;99.90
41720;DHT22;27405;53.316;-6.294;2024-03-06T00:15:34;5.70;99.90
41720;DHT22;27405;53.316;-6.294;2024-03-06T00:18:00;5.70;99.90
41720;DHT22;27405;53.316;-6.294;2024-03-06T00:20:26;5.60;99.90
41720;DHT22;27405;53.316;-6.294;2024-03-06T00:22:53;5.60;99.90
41720;DHT22;27405;53.316;-6.294;2024-03-06T00:25:19;5.70;99.90
41720;DHT22;27405;53.316;-6.294;2024-03-06T00:27:45;5.60;99.90
41720;DHT22;27405;53.316;-6.294;2024-03-06T00:30:11;5.60;99.90
41720;DHT22;27405;53.316;-6.294;2024-03-06T00:32:37;5.60;99.90
41720;DHT22;27405;53.316;-6.294;2024-03-06T00:35:04;5.60;99.90
41720;DHT22;27405;53.316;-6.294;2024-03-06T00:37:30;5.60;99.90
41720;DHT22;27405;53.316;-6.294;2024-03-06T00:39:56;5.60;99.90
41720;DHT22;27405;53.316;-6.294;2024-03-06T00:42:22;5.60;99.90
41720;DHT22;27405;53.316;-6.294;2024-03-06T00:44:48;5.60;99.90
41720;DHT22;27405;53.316;-6.294;2024-03-06T00:47:14;5.60;99.90
41720;DHT22;27405;53.316;-6.294;2024-03-06T00:49:40;5.60;99.90
41720;DHT22;27405;53.316;-6.294;2024-03-06T00:52:07;5.50;99.90
41720;DHT22;27405;53.316;-6.294;2024-03-06T00:54:35;5.50;99.90
41720;DHT22;27405;53.316;-6.294;2024-03-06T00:57:01;5.50;99.90
41720;DHT22;27405;53.316;-6.294;2024-03-06T00:59:27;5.50;99.90
41720;DHT22;27405;53.316;-6.294;2024-03-06T01:01:54;5.50;99.90
41720;DHT22;27405;53.316;-6.294;2024-03-06T01:04:23;5.50;99.90
41720;DHT22;27405;53.316;-6.294;2024-03-06T01:06:49;5.40;99.90
41720;DHT22;27405;53.316;-6.294;2024-03-06T01:09:15;5.40;99.90
41720;DHT22;27405;53.316;-6.294;2024-03-06T01:11:41;5.40;99.90
41720;DHT22;27405;53.316;-6.294;2024-03-06T01:14:07;5.40;99.90
41720;DHT22;27405;53.316;-6.294;2024-03-06T01:16:33;5.40;99.90
41720;DHT22;27405;53.316;-6.294;2024-03-06T01:18:59;5.40;99.90
41720;DHT22;27405;53.316;-6.294;2024-03-06T01:21:25;5.40;99.90
41720;DHT22;27405;53.316;-6.294;2024-03-06T01:23:51;5.30;99.90
41720;DHT22;27405;53.316;-6.294;2024-03-06T01:26:17;5.30;99.90
41720;DHT22;27405;53.316;-6.294;2024-03-06T01:32:05;5.30;99.90
41720;DHT22;27405;53.316;-6.294;2024-03-06T01:34:31;5.40;99.90
41720;DHT22;27405;53.316;-6.294;2024-03-06T01:36:57;5.30;99.90
41720;DHT22;27405;53.316;-6.294;2024-03-06T01:39:23;5.40;99.90
41720;DHT22;27405;53.316;-6.294;2024-03-06T01:41:50;5.40;99.90
41720;DHT22;27405;53.316;-6.294;2024-03-06T01:44:18;5.40;99.90
41720;DHT22;27405;53.316;-6.294;2024-03-06T01:46:44;5.40;99.90
41720;DHT22;27405;53.316;-6.294;2024-03-06T01:49:12;5.40;99.90
41720;DHT22;27405;53.316;-6.294;2024-03-06T01:51:40;5.50;99.90
41720;DHT22;27405;53.316;-6.294;2024-03-06T01:54:06;5.60;99.90
41720;DHT22;27405;53.316;-6.294;2024-03-06T01:56:34;5.70;99.90
41720;DHT22;27405;53.316;-6.294;2024-03-06T01:59:01;5.70;99.90
41720;DHT22;27405;53.316;-6.294;2024-03-06T02:01:29;5.90;99.90
41720;DHT22;27405;53.316;-6.294;2024-03-06T02:03:56;6.10;99.90
41720;DHT22;27405;53.316;-6.294;2024-03-06T02:06:22;6.10;99.90
41720;DHT22;27405;53.316;-6.294;2024-03-06T02:08:49;6.20;99.90
41720;DHT22;27405;53.316;-6.294;2024-03-06T02:11:15;6.20;99.90
41720;DHT22;27405;53.316;-6.294;2024-03-06T02:13:44;6.20;99.90
41720;DHT22;27405;53.316;-6.294;2024-03-06T02:16:10;6.20;99.90
41720;DHT22;27405;53.316;-6.294;2024-03-06T02:18:36;6.20;99.90
41720;DHT22;27405;53.316;-6.294;2024-03-06T02:21:03;6.10;99.90
41720;DHT22;27405;53.316;-6.294;2024-03-06T02:23:30;6.10;99.90
41720;DHT22;27405;53.316;-6.294;2024-03-06T02:25:57;6.00;99.90
41720;DHT22;27405;53.316;-6.294;2024-03-06T02:28:23;5.90;99.90
41720;DHT22;27405;53.316;-6.294;2024-03-06T02:30:52;5.90;99.90
41720;DHT22;27405;53.316;-6.294;2024-03-06T02:33:17;5.80;99.90
41720;DHT22;27405;53.316;-6.294;2024-03-06T02:35:44;5.70;99.90
41720;DHT22;27405;53.316;-6.294;2024-03-06T02:38:11;5.70;99.90
41720;DHT22;27405;53.316;-6.294;2024-03-06T02:40:38;5.60;99.90
41720;DHT22;27405;53.316;-6.294;2024-03-06T02:43:04;5.50;99.90
41720;DHT22;27405;53.316;-6.294;2024-03-06T02:45:30;5.40;99.90
41720;DHT22;27405;53.316;-6.294;2024-03-06T02:47:56;5.30;99.90
41720;DHT22;27405;53.316;-6.294;2024-03-06T02:50:22;5.30;99.90
41720;DHT22;27405;53.316;-6.294;2024-03-06T02:52:49;5.30;99.90
41720;DHT22;27405;53.316;-6.294;2024-03-06T02:55:14;5.20;99.90
41720;DHT22;27405;53.316;-6.294;2024-03-06T02:57:40;5.20;99.90
41720;DHT22;27405;53.316;-6.294;2024-03-06T03:00:07;5.20;99.90
41720;DHT22;27405;53.316;-6.294;2024-03-06T03:02:39;5.20;99.90
41720;DHT22;27405;53.316;-6.294;2024-03-06T03:05:05;5.10;99.90
41720;DHT22;27405;53.316;-6.294;2024-03-06T03:07:31;5.10;99.90
41720;DHT22;27405;53.316;-6.294;2024-03-06T03:09:57;5.10;99.90
41720;DHT22;27405;53.316;-6.294;2024-03-06T03:12:23;5.00;99.90
41720;DHT22;27405;53.316;-6.294;2024-03-06T03:14:49;5.00;99.90
41720;DHT22;27405;53.316;-6.294;2024-03-06T03:17:16;5.00;99.90
41720;DHT22;27405;53.316;-6.294;2024-03-06T03:19:43;5.00;99.90
41720;DHT22;27405;53.316;-6.294;2024-03-06T03:22:09;4.90;99.90
41720;DHT22;27405;53.316;-6.294;2024-03-06T03:24:35;4.90;99.90
41720;DHT22;27405;53.316;-6.294;2024-03-06T03:27:02;4.90;99.90
41720;DHT22;27405;53.316;-6.294;2024-03-06T03:29:29;4.80;99.90
41720;DHT22;27405;53.316;-6.294;2024-03-06T03:31:55;4.80;99.90
41720;DHT22;27405;53.316;-6.294;2024-03-06T03:34:22;4.80;99.90
41720;DHT22;27405;53.316;-6.294;2024-03-06T03:36:49;4.70;99.90
41720;DHT22;27405;53.316;-6.294;2024-03-06T03:39:15;4.70;99.90
41720;DHT22;27405;53.316;-6.294;2024-03-06T03:41:47;4.70;99.90
41720;DHT22;27405;53.316;-6.294;2024-03-06T03:44:17;4.70;99.90
41720;DHT22;27405;53.316;-6.294;2024-03-06T03:46:46;4.70;99.90
41720;DHT22;27405;53.316;-6.294;2024-03-06T03:49:13;4.70;99.90
41720;DHT22;27405;53.316;-6.294;2024-03-06T03:51:39;4.70;99.90
41720;DHT22;27405;53.316;-6.294;2024-03-06T03:54:06;4.70;99.90
41720;DHT22;27405;53.316;-6.294;2024-03-06T03:56:32;4.60;99.90
41720;DHT22;27405;53.316;-6.294;2024-03-06T03:58:59;4.60;99.90
41720;DHT22;27405;53.316;-6.294;2024-03-06T04:01:25;4.70;99.90
41720;DHT22;27405;53.316;-6.294;2024-03-06T04:03:51;4.70;99.90
41720;DHT22;27405;53.316;-6.294;2024-03-06T04:06:18;4.70;99.90
41720;DHT22;27405;53.316;-6.294;2024-03-06T04:12:06;4.70;99.90
41720;DHT22;27405;53.316;-6.294;2024-03-06T04:14:32;4.70;99.90
41720;DHT22;27405;53.316;-6.294;2024-03-06T04:16:58;4.60;99.90
41720;DHT22;27405;53.316;-6.294;2024-03-06T04:19:24;4.60;99.90
41720;DHT22;27405;53.316;-6.294;2024-03-06T04:21:50;4.60;99.90
41720;DHT22;27405;53.316;-6.294;2024-03-06T04:24:16;4.60;99.90
41720;DHT22;27405;53.316;-6.294;2024-03-06T04:26:42;4.50;99.90
41720;DHT22;27405;53.316;-6.294;2024-03-06T04:29:08;4.50;99.90
41720;DHT22;27405;53.316;-6.294;2024-03-06T04:31:35;4.50;99.90
41720;DHT22;27405;53.316;-6.294;2024-03-06T04:34:01;4.50;99.90
41720;DHT22;27405;53.316;-6.294;2024-03-06T04:36:27;4.50;99.90
41720;DHT22;27405;53.316;-6.294;2024-03-06T04:38:53;4.50;99.90
41720;DHT22;27405;53.316;-6.294;2024-03-06T04:41:19;4.50;99.90
41720;DHT22;27405;53.316;-6.294;2024-03-06T04:43:45;4.40;99.90
41720;DHT22;27405;53.316;-6.294;2024-03-06T04:46:14;4.50;99.90
41720;DHT22;27405;53.316;-6.294;2024-03-06T04:48:40;4.50;99.90
41720;DHT22;27405;53.316;-6.294;2024-03-06T04:51:06;4.50;99.90
41720;DHT22;27405;53.316;-6.294;2024-03-06T04:53:32;4.50;99.90
41720;DHT22;27405;53.316;-6.294;2024-03-06T04:55:58;4.60;99.90
41720;DHT22;27405;53.316;-6.294;2024-03-06T04:58:24;4.70;99.90
41720;DHT22;27405;53.316;-6.294;2024-03-06T05:00:50;4.70;99.90
41720;DHT22;27405;53.316;-6.294;2024-03-06T05:03:16;4.80;99.90
41720;DHT22;27405;53.316;-6.294;2024-03-06T05:05:42;4.90;99.90
41720;DHT22;27405;53.316;-6.294;2024-03-06T05:08:08;5.00;99.90
41720;DHT22;27405;53.316;-6.294;2024-03-06T05:10:35;5.20;99.90
41720;DHT22;27405;53.316;-6.294;2024-03-06T05:13:01;5.30;99.90
41720;DHT22;27405;53.316;-6.294;2024-03-06T05:15:27;5.30;99.90
41720;DHT22;27405;53.316;-6.294;2024-03-06T05:17:53;5.40;99.90
41720;DHT22;27405;53.316;-6.294;2024-03-06T05:20:21;5.50;99.90
41720;DHT22;27405;53.316;-6.294;2024-03-06T05:22:47;5.60;99.90
41720;DHT22;27405;53.316;-6.294;2024-03-06T05:25:13;5.70;99.90
41720;DHT22;27405;53.316;-6.294;2024-03-06T05:27:39;5.80;99.90
41720;DHT22;27405;53.316;-6.294;2024-03-06T05:30:05;5.80;99.90
41720;DHT22;27405;53.316;-6.294;2024-03-06T05:32:31;5.90;99.90
41720;DHT22;27405;53.316;-6.294;2024-03-06T05:34:57;6.00;99.90
41720;DHT22;27405;53.316;-6.294;2024-03-06T05:37:23;6.10;99.90
41720;DHT22;27405;53.316;-6.294;2024-03-06T05:39:49;6.20;99.90
41720;DHT22;27405;53.316;-6.294;2024-03-06T05:42:15;6.20;99.90
41720;DHT22;27405;53.316;-6.294;2024-03-06T05:44:41;6.20;99.90
41720;DHT22;27405;53.316;-6.294;2024-03-06T05:47:07;6.20;99.90
41720;DHT22;27405;53.316;-6.294;2024-03-06T05:49:33;6.20;99.90
41720;DHT22;27405;53.316;-6.294;2024-03-06T05:52:00;6.10;99.90
41720;DHT22;27405;53.316;-6.294;2024-03-06T05:54:26;6.10;99.90
41720;DHT22;27405;53.316;-6.294;2024-03-06T05:56:53;6.00;99.90
41720;DHT22;27405;53.316;-6.294;2024-03-06T05:59:19;6.00;99.90
41720;DHT22;27405;53.316;-6.294;2024-03-06T06:01:45;6.10;99.90
41720;DHT22;27405;53.316;-6.294;2024-03-06T06:04:13;6.10;99.90
41720;DHT22;27405;53.316;-6.294;2024-03-06T06:06:39;6.10;99.90
41720;DHT22;27405;53.316;-6.294;2024-03-06T06:09:06;6.10;99.90
41720;DHT22;27405;53.316;-6.294;2024-03-06T06:11:32;6.10;99.90
41720;DHT22;27405;53.316;-6.294;2024-03-06T06:14:01;6.10;99.90
41720;DHT22;27405;53.316;-6.294;2024-03-06T06:16:34;6.00;99.90
41720;DHT22;27405;53.316;-6.294;2024-03-06T06:19:00;6.00;99.90
41720;DHT22;27405;53.316;-6.294;2024-03-06T06:21:26;6.00;99.90
41720;DHT22;27405;53.316;-6.294;2024-03-06T06:23:52;6.00;99.90
41720;DHT22;27405;53.316;-6.294;2024-03-06T06:26:18;6.00;99.90
41720;DHT22;27405;53.316;-6.294;2024-03-06T06:28:46;5.90;99.90
41720;DHT22;27405;53.316;-6.294;2024-03-06T06:31:12;5.90;99.90
41720;DHT22;27405;53.316;-6.294;2024-03-06T06:33:38;5.90;99.90
41720;DHT22;27405;53.316;-6.294;2024-03-06T06:36:04;6.00;99.90
41720;DHT22;27405;53.316;-6.294;2024-03-06T06:41:52;6.10;99.90
41720;DHT22;27405;53.316;-6.294;2024-03-06T06:44:18;6.10;99.90
41720;DHT22;27405;53.316;-6.294;2024-03-06T06:46:44;6.20;99.90
41720;DHT22;27405;53.316;-6.294;2024-03-06T06:49:10;6.30;99.90
41720;DHT22;27405;53.316;-6.294;2024-03-06T06:51:36;6.30;99.90
41720;DHT22;27405;53.316;-6.294;2024-03-06T06:54:02;6.40;99.90
41720;DHT22;27405;53.316;-6.294;2024-03-06T06:56:30;6.40;99.90
41720;DHT22;27405;53.316;-6.294;2024-03-06T06:58:56;6.40;99.90
41720;DHT22;27405;53.316;-6.294;2024-03-06T07:01:22;6.40;99.90
41720;DHT22;27405;53.316;-6.294;2024-03-06T07:03:49;6.40;99.90
41720;DHT22;27405;53.316;-6.294;2024-03-06T07:06:16;6.50;99.90
41720;DHT22;27405;53.316;-6.294;2024-03-06T07:08:42;6.50;99.90
41720;DHT22;27405;53.316;-6.294;2024-03-06T07:11:08;6.50;99.90
41720;DHT22;27405;53.316;-6.294;2024-03-06T07:13:36;6.40;99.90
41720;DHT22;27405;53.316;-6.294;2024-03-06T07:16:03;6.40;99.90
41720;DHT22;27405;53.316;-6.294;2024-03-06T07:18:30;6.40;99.90
41720;DHT22;27405;53.316;-6.294;2024-03-06T07:20:56;6.40;99.90
41720;DHT22;27405;53.316;-6.294;2024-03-06T07:23:22;6.40;99.90
41720;DHT22;27405;53.316;-6.294;2024-03-06T07:25:48;6.40;99.90
41720;DHT22;27405;53.316;-6.294;2024-03-06T07:28:14;6.30;99.90
41720;DHT22;27405;53.316;-6.294;2024-03-06T07:30:41;6.30;99.90
41720;DHT22;27405;53.316;-6.294;2024-03-06T07:33:06;6.30;99.90
41720;DHT22;27405;53.316;-6.294;2024-03-06T07:35:33;6.30;99.90
41720;DHT22;27405;53.316;-6.294;2024-03-06T07:38:02;6.40;99.90
41720;DHT22;27405;53.316;-6.294;2024-03-06T07:40:30;6.40;99.90
41720;DHT22;27405;53.316;-6.294;2024-03-06T07:42:57;6.50;99.90
41720;DHT22;27405;53.316;-6.294;2024-03-06T07:45:25;6.50;99.90
41720;DHT22;27405;53.316;-6.294;2024-03-06T07:47:52;6.50;99.90
41720;DHT22;27405;53.316;-6.294;2024-03-06T07:50:18;6.50;99.90
41720;DHT22;27405;53.316;-6.294;2024-03-06T07:52:47;6.60;99.90
41720;DHT22;27405;53.316;-6.294;2024-03-06T07:55:14;6.60;99.90
41720;DHT22;27405;53.316;-6.294;2024-03-06T07:57:40;6.60;99.90
41720;DHT22;27405;53.316;-6.294;2024-03-06T08:00:07;6.60;99.90
41720;DHT22;27405;53.316;-6.294;2024-03-06T08:02:45;6.60;99.90
41720;DHT22;27405;53.316;-6.294;2024-03-06T08:05:16;6.70;99.90
41720;DHT22;27405;53.316;-6.294;2024-03-06T08:07:42;6.70;99.90
41720;DHT22;27405;53.316;-6.294;2024-03-06T08:10:09;6.80;99.90
41720;DHT22;27405;53.316;-6.294;2024-03-06T08:12:39;6.80;99.90
41720;DHT22;27405;53.316;-6.294;2024-03-06T08:15:07;6.90;99.90
41720;DHT22;27405;53.316;-6.294;2024-03-06T08:17:35;7.00;99.90
41720;DHT22;27405;53.316;-6.294;2024-03-06T08:20:03;7.00;99.90
41720;DHT22;27405;53.316;-6.294;2024-03-06T08:25:55;7.10;99.90
41720;DHT22;27405;53.316;-6.294;2024-03-06T08:28:22;7.20;99.90
41720;DHT22;27405;53.316;-6.294;2024-03-06T08:30:48;7.30;99.90
41720;DHT22;27405;53.316;-6.294;2024-03-06T08:33:14;7.30;99.90
41720;DHT22;27405;53.316;-6.294;2024-03-06T08:35:41;7.30;99.90
41720;DHT22;27405;53.316;-6.294;2024-03-06T08:38:07;7.30;99.90
41720;DHT22;27405;53.316;-6.294;2024-03-06T08:40:34;7.40;99.90
41720;DHT22;27405;53.316;-6.294;2024-03-06T08:43:00;7.40;99.90
41720;DHT22;27405;53.316;-6.294;2024-03-06T08:45:26;7.40;99.90
41720;DHT22;27405;53.316;-6.294;2024-03-06T08:47:52;7.40;99.90
41720;DHT22;27405;53.316;-6.294;2024-03-06T08:50:21;7.50;99.90
41720;DHT22;27405;53.316;-6.294;2024-03-06T08:52:47;7.50;99.90
41720;DHT22;27405;53.316;-6.294;2024-03-06T08:55:13;7.50;99.90
41720;DHT22;27405;53.316;-6.294;2024-03-06T09:01:01;7.70;99.90
41720;DHT22;27405;53.316;-6.294;2024-03-06T09:03:27;7.80;99.90
41720;DHT22;27405;53.316;-6.294;2024-03-06T09:05:53;7.90;99.90
41720;DHT22;27405;53.316;-6.294;2024-03-06T09:08:19;8.00;99.90
41720;DHT22;27405;53.316;-6.294;2024-03-06T09:10:46;8.00;99.90
41720;DHT22;27405;53.316;-6.294;2024-03-06T09:13:12;8.10;99.90
41720;DHT22;27405;53.316;-6.294;2024-03-06T09:15:38;8.20;99.90
41720;DHT22;27405;53.316;-6.294;2024-03-06T09:21:25;8.40;99.90
41720;DHT22;27405;53.316;-6.294;2024-03-06T09:23:51;8.50;99.90
41720;DHT22;27405;53.316;-6.294;2024-03-06T09:26:17;8.60;99.90
41720;DHT22;27405;53.316;-6.294;2024-03-06T09:28:43;8.60;99.90
41720;DHT22;27405;53.316;-6.294;2024-03-06T09:31:09;8.70;99.90
41720;DHT22;27405;53.316;-6.294;2024-03-06T09:33:35;8.80;99.90
41720;DHT22;27405;53.316;-6.294;2024-03-06T09:36:02;8.90;99.90
41720;DHT22;27405;53.316;-6.294;2024-03-06T09:38:29;9.00;99.90
41720;DHT22;27405;53.316;-6.294;2024-03-06T09:40:58;9.10;99.90
41720;DHT22;27405;53.316;-6.294;2024-03-06T09:43:23;9.10;99.90
41720;DHT22;27405;53.316;-6.294;2024-03-06T09:45:50;9.20;99.90
41720;DHT22;27405;53.316;-6.294;2024-03-06T09:48:20;9.30;99.90
41720;DHT22;27405;53.316;-6.294;2024-03-06T09:50:49;9.30;99.90
41720;DHT22;27405;53.316;-6.294;2024-03-06T09:53:16;9.40;99.90
41720;DHT22;27405;53.316;-6.294;2024-03-06T09:59:06;9.50;99.90
41720;DHT22;27405;53.316;-6.294;2024-03-06T10:01:32;9.60;99.90
41720;DHT22;27405;53.316;-6.294;2024-03-06T10:03:58;9.70;99.90
41720;DHT22;27405;53.316;-6.294;2024-03-06T10:06:24;9.80;99.90
41720;DHT22;27405;53.316;-6.294;2024-03-06T10:08:52;9.90;99.90
41720;DHT22;27405;53.316;-6.294;2024-03-06T10:11:18;9.90;99.90
41720;DHT22;27405;53.316;-6.294;2024-03-06T10:13:44;10.00;99.90
41720;DHT22;27405;53.316;-6.294;2024-03-06T10:16:10;10.10;99.90
41720;DHT22;27405;53.316;-6.294;2024-03-06T10:18:37;10.10;99.90
41720;DHT22;27405;53.316;-6.294;2024-03-06T10:21:05;10.20;99.90
41720;DHT22;27405;53.316;-6.294;2024-03-06T10:23:35;10.20;99.90
41720;DHT22;27405;53.316;-6.294;2024-03-06T10:26:00;10.30;99.90
41720;DHT22;27405;53.316;-6.294;2024-03-06T10:31:54;10.40;99.90
41720;DHT22;27405;53.316;-6.294;2024-03-06T10:34:25;10.60;99.90
41720;DHT22;27405;53.316;-6.294;2024-03-06T10:37:09;10.60;99.90
41720;DHT22;27405;53.316;-6.294;2024-03-06T10:39:36;10.70;99.90
41720;DHT22;27405;53.316;-6.294;2024-03-06T10:42:07;10.70;99.90
41720;DHT22;27405;53.316;-6.294;2024-03-06T10:44:34;10.80;99.90
41720;DHT22;27405;53.316;-6.294;2024-03-06T10:47:05;10.90;99.90
41720;DHT22;27405;53.316;-6.294;2024-03-06T10:49:32;11.00;99.90
41720;DHT22;27405;53.316;-6.294;2024-03-06T10:52:04;11.10;99.90
41720;DHT22;27405;53.316;-6.294;2024-03-06T10:54:34;11.20;99.90
41720;DHT22;27405;53.316;-6.294;2024-03-06T10:57:02;11.30;99.90
41720;DHT22;27405;53.316;-6.294;2024-03-06T10:59:29;11.40;99.90
41720;DHT22;27405;53.316;-6.294;2024-03-06T11:02:01;11.40;99.90
41720;DHT22;27405;53.316;-6.294;2024-03-06T11:04:29;11.40;99.90
41720;DHT22;27405;53.316;-6.294;2024-03-06T11:11:20;11.40;99.90
41720;DHT22;27405;53.316;-6.294;2024-03-06T11:13:47;11.40;99.90
41720;DHT22;27405;53.316;-6.294;2024-03-06T11:16:13;11.40;99.90
41720;DHT22;27405;53.316;-6.294;2024-03-06T11:22:01;11.40;99.90
41720;DHT22;27405;53.316;-6.294;2024-03-06T11:24:33;11.40;99.90
41720;DHT22;27405;53.316;-6.294;2024-03-06T11:27:03;11.40;99.90
41720;DHT22;27405;53.316;-6.294;2024-03-06T11:30:03;11.40;99.90
41720;DHT22;27405;53.316;-6.294;2024-03-06T11:32:37;11.50;99.90
41720;DHT22;27405;53.316;-6.294;2024-03-06T11:35:04;11.60;99.90
41720;DHT22;27405;53.316;-6.294;2024-03-06T11:37:34;11.70;99.90
41720;DHT22;27405;53.316;-6.294;2024-03-06T11:40:01;11.70;99.90
41720;DHT22;27405;53.316;-6.294;2024-03-06T11:42:34;11.80;99.90
41720;DHT22;27405;53.316;-6.294;2024-03-06T11:45:13;11.90;99.90
41720;DHT22;27405;53.316;-6.294;2024-03-06T11:48:02;11.90;99.90
41720;DHT22;27405;53.316;-6.294;2024-03-06T11:50:28;12.00;99.90
41720;DHT22;27405;53.316;-6.294;2024-03-06T11:52:55;12.00;99.90
41720;DHT22;27405;53.316;-6.294;2024-03-06T11:55:22;12.00;99.90
41720;DHT22;27405;53.316;-6.294;2024-03-06T11:57:48;12.00;99.90
41720;DHT22;27405;53.316;-6.294;2024-03-06T12:00:14;12.00;99.90
41720;DHT22;27405;53.316;-6.294;2024-03-06T12:02:40;12.10;99.90
41720;DHT22;27405;53.316;-6.294;2024-03-06T12:05:07;12.20;99.90
41720;DHT22;27405;53.316;-6.294;2024-03-06T12:10:58;12.10;99.90
41720;DHT22;27405;53.316;-6.294;2024-03-06T12:16:56;12.20;99.90
41720;DHT22;27405;53.316;-6.294;2024-03-06T12:19:22;12.30;99.90
41720;DHT22;27405;53.316;-6.294;2024-03-06T12:21:48;12.40;99.90
41720;DHT22;27405;53.316;-6.294;2024-03-06T12:24:16;12.50;99.90
41720;DHT22;27405;53.316;-6.294;2024-03-06T12:26:44;12.50;99.90
41720;DHT22;27405;53.316;-6.294;2024-03-06T12:29:17;12.50;99.90
41720;DHT22;27405;53.316;-6.294;2024-03-06T12:31:46;12.60;99.90
41720;DHT22;27405;53.316;-6.294;2024-03-06T12:37:35;12.70;99.90
41720;DHT22;27405;53.316;-6.294;2024-03-06T12:40:05;12.80;99.90
41720;DHT22;27405;53.316;-6.294;2024-03-06T12:42:31;12.90;99.90
41720;DHT22;27405;53.316;-6.294;2024-03-06T12:44:57;12.90;99.90
41720;DHT22;27405;53.316;-6.294;2024-03-06T12:47:23;12.90;99.90
41720;DHT22;27405;53.316;-6.294;2024-03-06T12:53:11;12.90;99.90
41720;DHT22;27405;53.316;-6.294;2024-03-06T12:55:37;13.00;99.90
41720;DHT22;27405;53.316;-6.294;2024-03-06T12:58:03;13.00;99.90
41720;DHT22;27405;53.316;-6.294;2024-03-06T13:00:30;13.00;99.90
41720;DHT22;27405;53.316;-6.294;2024-03-06T13:02:56;13.00;99.90
41720;DHT22;27405;53.316;-6.294;2024-03-06T13:05:22;13.00;99.90
41720;DHT22;27405;53.316;-6.294;2024-03-06T13:07:48;12.90;99.90
41720;DHT22;27405;53.316;-6.294;2024-03-06T13:10:15;12.80;99.90
41720;DHT22;27405;53.316;-6.294;2024-03-06T13:12:40;12.70;99.90
41720;DHT22;27405;53.316;-6.294;2024-03-06T13:15:06;12.70;99.90
41720;DHT22;27405;53.316;-6.294;2024-03-06T13:17:33;12.70;99.90
41720;DHT22;27405;53.316;-6.294;2024-03-06T13:19:59;12.70;99.90
41720;DHT22;27405;53.316;-6.294;2024-03-06T13:22:26;12.60;99.90
41720;DHT22;27405;53.316;-6.294;2024-03-06T13:24:52;12.60;99.90
41720;DHT22;27405;53.316;-6.294;2024-03-06T13:27:18;12.50;99.90
41720;DHT22;27405;53.316;-6.294;2024-03-06T13:29:44;12.50;99.90
41720;DHT22;27405;53.316;-6.294;2024-03-06T13:32:10;12.40;99.90
41720;DHT22;27405;53.316;-6.294;2024-03-06T13:34:36;12.30;99.90
41720;DHT22;27405;53.316;-6.294;2024-03-06T13:37:02;12.20;99.90
41720;DHT22;27405;53.316;-6.294;2024-03-06T13:39:28;12.10;99.90
41720;DHT22;27405;53.316;-6.294;2024-03-06T13:41:54;12.10;99.90
41720;DHT22;27405;53.316;-6.294;2024-03-06T13:44:20;12.00;99.90
41720;DHT22;27405;53.316;-6.294;2024-03-06T13:46:46;12.00;99.90
41720;DHT22;27405;53.316;-6.294;2024-03-06T13:49:39;12.00;99.90
41720;DHT22;27405;53.316;-6.294;2024-03-06T13:52:06;12.00;99.90
41720;DHT22;27405;53.316;-6.294;2024-03-06T13:54:41;12.10;99.90
41720;DHT22;27405;53.316;-6.294;2024-03-06T13:57:08;12.20;99.90
41720;DHT22;27405;53.316;-6.294;2024-03-06T13:59:35;12.20;99.90
41720;DHT22;27405;53.316;-6.294;2024-03-06T14:02:01;12.20;99.90
41720;DHT22;27405;53.316;-6.294;2024-03-06T14:04:28;12.20;99.90
41720;DHT22;27405;53.316;-6.294;2024-03-06T14:06:55;12.10;99.90
41720;DHT22;27405;53.316;-6.294;2024-03-06T14:09:23;12.00;99.90
41720;DHT22;27405;53.316;-6.294;2024-03-06T14:11:51;12.00;99.90
41720;DHT22;27405;53.316;-6.294;2024-03-06T14:14:18;11.90;99.90
41720;DHT22;27405;53.316;-6.294;2024-03-06T14:16:45;11.90;99.90
41720;DHT22;27405;53.316;-6.294;2024-03-06T14:19:11;11.80;99.90
41720;DHT22;27405;53.316;-6.294;2024-03-06T14:21:37;11.80;99.90
41720;DHT22;27405;53.316;-6.294;2024-03-06T14:24:04;11.70;99.90
41720;DHT22;27405;53.316;-6.294;2024-03-06T14:26:34;11.70;99.90
41720;DHT22;27405;53.316;-6.294;2024-03-06T14:29:01;11.70;99.90
41720;DHT22;27405;53.316;-6.294;2024-03-06T14:31:31;11.70;99.90
41720;DHT22;27405;53.316;-6.294;2024-03-06T14:33:58;11.70;99.90
41720;DHT22;27405;53.316;-6.294;2024-03-06T14:36:24;11.80;99.90
41720;DHT22;27405;53.316;-6.294;2024-03-06T14:38:51;11.80;99.90
41720;DHT22;27405;53.316;-6.294;2024-03-06T14:41:20;11.90;99.90
41720;DHT22;27405;53.316;-6.294;2024-03-06T14:43:46;11.90;99.90
41720;DHT22;27405;53.316;-6.294;2024-03-06T14:46:12;12.00;99.90
41720;DHT22;27405;53.316;-6.294;2024-03-06T14:48:39;12.00;99.90
41720;DHT22;27405;53.316;-6.294;2024-03-06T14:51:06;12.10;99.90
41720;DHT22;27405;53.316;-6.294;2024-03-06T14:53:32;12.10;99.90
41720;DHT22;27405;53.316;-6.294;2024-03-06T14:59:23;12.00;99.90
41720;DHT22;27405;53.316;-6.294;2024-03-06T15:01:50;11.90;99.90
41720;DHT22;27405;53.316;-6.294;2024-03-06T15:04:17;11.90;99.90
41720;DHT22;27405;53.316;-6.294;2024-03-06T15:06:44;11.90;99.90
41720;DHT22;27405;53.316;-6.294;2024-03-06T15:09:11;11.80;99.90
41720;DHT22;27405;53.316;-6.294;2024-03-06T15:11:39;11.80;99.90
41720;DHT22;27405;53.316;-6.294;2024-03-06T15:14:05;11.80;99.90
41720;DHT22;27405;53.316;-6.294;2024-03-06T15:16:34;11.70;99.90
41720;DHT22;27405;53.316;-6.294;2024-03-06T15:19:00;11.70;99.90
41720;DHT22;27405;53.316;-6.294;2024-03-06T15:21:29;11.80;99.90
41720;DHT22;27405;53.316;-6.294;2024-03-06T15:23:56;11.80;99.90
41720;DHT22;27405;53.316;-6.294;2024-03-06T15:26:22;11.90;99.90
41720;DHT22;27405;53.316;-6.294;2024-03-06T15:28:49;11.90;99.90
41720;DHT22;27405;53.316;-6.294;2024-03-06T15:31:15;12.00;99.90
41720;DHT22;27405;53.316;-6.294;2024-03-06T15:33:41;11.90;99.90
41720;DHT22;27405;53.316;-6.294;2024-03-06T15:36:07;11.90;99.90
41720;DHT22;27405;53.316;-6.294;2024-03-06T15:38:34;11.80;99.90
41720;DHT22;27405;53.316;-6.294;2024-03-06T15:41:00;11.80;99.90
41720;DHT22;27405;53.316;-6.294;2024-03-06T15:43:26;11.70;99.90
41720;DHT22;27405;53.316;-6.294;2024-03-06T15:45:52;11.60;99.90
41720;DHT22;27405;53.316;-6.294;2024-03-06T15:48:19;11.60;99.90
41720;DHT22;27405;53.316;-6.294;2024-03-06T15:50:45;11.60;99.90
41720;DHT22;27405;53.316;-6.294;2024-03-06T15:53:11;11.50;99.90
41720;DHT22;27405;53.316;-6.294;2024-03-06T15:55:38;11.50;99.90
41720;DHT22;27405;53.316;-6.294;2024-03-06T16:01:26;11.40;99.90
41720;DHT22;27405;53.316;-6.294;2024-03-06T16:03:52;11.40;99.90
41720;DHT22;27405;53.316;-6.294;2024-03-06T16:06:18;11.20;99.90
41720;DHT22;27405;53.316;-6.294;2024-03-06T16:08:44;11.20;99.90
41720;DHT22;27405;53.316;-6.294;2024-03-06T16:11:10;11.20;99.90
41720;DHT22;27405;53.316;-6.294;2024-03-06T16:13:36;11.30;99.90
41720;DHT22;27405;53.316;-6.294;2024-03-06T16:16:03;11.40;99.90
41720;DHT22;27405;53.316;-6.294;2024-03-06T16:18:29;11.40;99.90